createdAt,value
2023-03-31T00:00:58.173Z,58.00
2023-03-31T00:03:26.663Z,58.45
2023-03-31T00:05:59.268Z,58.20
2023-03-31T00:08:30.587Z,58.02
2023-03-31T00:11:01.709Z,58.08
2023-03-31T00:13:30.867Z,58.40
2023-03-31T00:16:03.738Z,58.30
2023-03-31T00:18:32.351Z,58.43
2023-03-31T00:21:09.748Z,58.35
2023-03-31T00:23:37.810Z,58.87
2023-03-31T00:26:06.388Z,59.06
2023-03-31T00:28:34.701Z,58.38
2023-03-31T00:31:05.287Z,58.82
2023-03-31T00:33:33.253Z,58.96
2023-03-31T00:36:02.197Z,59.07
2023-03-31T00:38:30.954Z,58.03
2023-03-31T00:40:59.353Z,58.60
2023-03-31T00:43:33.855Z,58.73
2023-03-31T00:46:17.770Z,58.50
2023-03-31T00:48:51.940Z,58.41
2023-03-31T00:51:23.584Z,58.70
2023-03-31T00:53:57.420Z,58.55
2023-03-31T00:56:27.735Z,58.63
2023-03-31T00:59:01.529Z,58.83
2023-03-31T01:01:32.053Z,58.26
2023-03-31T01:04:00.262Z,58.08
2023-03-31T01:06:30.752Z,58.24
2023-03-31T01:08:59.374Z,57.99
2023-03-31T01:11:30.883Z,57.81
2023-03-31T01:13:59.777Z,58.00
2023-03-31T01:16:27.888Z,58.38
2023-03-31T01:18:57.461Z,57.45
2023-03-31T01:22:12.829Z,57.63
2023-03-31T01:25:33.856Z,57.20
2023-03-31T01:28:24.621Z,57.09
2023-03-31T01:31:59.034Z,57.71
2023-03-31T01:35:10.182Z,57.94
2023-03-31T01:38:22.153Z,57.68
2023-03-31T01:41:09.299Z,56.52
2023-03-31T01:43:46.971Z,56.25
2023-03-31T01:46:28.923Z,57.33
2023-03-31T01:49:09.098Z,58.04
2023-03-31T01:51:46.572Z,58.97
2023-03-31T01:54:22.000Z,59.17
2023-03-31T01:56:57.921Z,59.55
2023-03-31T01:59:32.608Z,59.34
2023-03-31T02:02:06.761Z,59.46
2023-03-31T02:04:39.875Z,59.91
2023-03-31T02:07:15.105Z,60.30
2023-03-31T02:09:48.608Z,60.79
2023-03-31T02:12:21.357Z,60.93
2023-03-31T02:14:53.633Z,61.36
2023-03-31T02:17:30.442Z,61.50
2023-03-31T02:20:05.604Z,62.23
2023-03-31T02:22:38.728Z,62.69
2023-03-31T02:25:12.197Z,62.75
2023-03-31T02:27:44.382Z,62.57
2023-03-31T02:30:14.115Z,62.77
2023-03-31T02:32:46.621Z,62.82
2023-03-31T02:35:20.096Z,62.28
2023-03-31T02:37:49.682Z,62.62
2023-03-31T02:40:27.536Z,62.11
2023-03-31T02:42:57.216Z,62.16
2023-03-31T02:45:45.456Z,62.22
2023-03-31T02:48:19.732Z,62.01
2023-03-31T02:51:27.397Z,62.26
2023-03-31T02:54:22.599Z,62.47
2023-03-31T02:57:15.992Z,62.38
2023-03-31T02:59:59.013Z,61.97
2023-03-31T03:02:38.623Z,62.22
2023-03-31T03:05:27.101Z,61.89
2023-03-31T03:08:35.605Z,62.36
2023-03-31T03:11:18.653Z,62.53
2023-03-31T03:13:52.018Z,62.30
2023-03-31T03:16:27.414Z,62.08
2023-03-31T03:19:00.440Z,61.53
2023-03-31T03:21:28.707Z,61.68
2023-03-31T03:23:57.160Z,61.13
2023-03-31T03:26:28.036Z,61.47
2023-03-31T03:28:57.279Z,61.54
2023-03-31T03:31:26.798Z,61.91
2023-03-31T03:33:55.832Z,62.15
2023-03-31T03:36:24.016Z,62.43
2023-03-31T03:38:52.070Z,62.32
2023-03-31T03:41:20.057Z,62.05
2023-03-31T03:43:48.114Z,62.26
2023-03-31T03:46:16.214Z,62.56
2023-03-31T03:48:46.228Z,62.90
2023-03-31T03:51:14.205Z,62.94
2023-03-31T03:53:42.211Z,62.40
2023-03-31T03:56:10.275Z,62.66
2023-03-31T03:58:38.267Z,62.71
2023-03-31T04:01:06.758Z,62.60
2023-03-31T04:03:34.829Z,62.58
2023-03-31T04:06:04.630Z,61.97
2023-03-31T04:08:32.849Z,62.80
2023-03-31T04:11:01.460Z,63.07
2023-03-31T04:13:29.645Z,62.94
2023-03-31T04:15:57.671Z,62.85
2023-03-31T04:18:25.799Z,62.73
2023-03-31T04:21:03.920Z,63.59
2023-03-31T04:23:34.677Z,63.17
2023-03-31T04:26:04.273Z,63.25
2023-03-31T04:28:34.903Z,63.20
2023-03-31T04:31:03.960Z,63.50
2023-03-31T04:33:34.040Z,63.61
2023-03-31T04:36:06.726Z,63.82
2023-03-31T04:38:36.192Z,63.75
2023-03-31T04:41:04.261Z,63.43
2023-03-31T04:43:32.207Z,63.96
2023-03-31T04:46:00.315Z,63.72
2023-03-31T04:48:28.399Z,64.05
2023-03-31T04:50:56.461Z,63.82
2023-03-31T04:53:24.839Z,64.24
2023-03-31T04:55:54.766Z,64.24
2023-03-31T04:58:22.907Z,64.18
2023-03-31T05:00:51.039Z,64.67
2023-03-31T05:03:19.503Z,64.50
2023-03-31T05:05:47.836Z,65.27
2023-03-31T05:08:16.124Z,65.44
2023-03-31T05:10:44.575Z,65.97
2023-03-31T05:13:13.959Z,66.04
2023-03-31T05:15:44.968Z,67.63
2023-03-31T05:18:13.074Z,68.60
2023-03-31T05:20:41.160Z,69.07
2023-03-31T05:23:09.264Z,69.43
2023-03-31T05:25:37.289Z,69.85
2023-03-31T05:28:05.986Z,70.32
2023-03-31T05:30:35.394Z,70.65
2023-03-31T05:33:03.469Z,70.62
2023-03-31T05:35:31.598Z,71.27
2023-03-31T05:37:59.669Z,71.57
2023-03-31T05:40:27.690Z,70.71
2023-03-31T05:42:55.716Z,72.13
2023-03-31T05:45:23.736Z,72.10
2023-03-31T05:47:53.086Z,72.20
2023-03-31T05:50:21.161Z,72.13
2023-03-31T05:52:49.167Z,71.81
2023-03-31T05:55:18.536Z,72.32
2023-03-31T05:57:46.533Z,71.73
2023-03-31T06:00:16.369Z,71.94
2023-03-31T06:02:44.456Z,72.10
2023-03-31T06:05:13.943Z,72.27
2023-03-31T06:07:41.927Z,72.18
2023-03-31T06:10:11.065Z,71.46
2023-03-31T06:12:39.195Z,71.50
2023-03-31T06:15:08.811Z,71.88
2023-03-31T06:17:38.460Z,71.74
2023-03-31T06:20:20.127Z,71.59
2023-03-31T06:22:53.807Z,71.82
2023-03-31T06:25:21.860Z,72.14
2023-03-31T06:27:49.924Z,72.13
2023-03-31T06:30:18.309Z,71.89
2023-03-31T06:32:46.358Z,71.39
2023-03-31T06:35:14.410Z,71.49
2023-03-31T06:37:42.474Z,71.95
2023-03-31T06:40:13.313Z,71.60
2023-03-31T06:42:41.370Z,71.72
2023-03-31T06:45:10.777Z,71.45
2023-03-31T06:47:41.339Z,72.16
2023-03-31T06:50:11.419Z,71.75
2023-03-31T06:52:40.810Z,72.03
2023-03-31T06:55:13.127Z,72.13
2023-03-31T06:57:41.323Z,72.52
2023-03-31T07:00:11.269Z,73.18
2023-03-31T07:02:39.644Z,73.31
2023-03-31T07:05:09.063Z,72.98
2023-03-31T07:07:37.360Z,72.93
2023-03-31T07:10:06.746Z,72.51
2023-03-31T07:12:36.386Z,72.31
2023-03-31T07:15:05.346Z,72.71
2023-03-31T07:17:33.837Z,72.99
2023-03-31T07:20:02.143Z,72.17
2023-03-31T07:22:30.542Z,72.57
2023-03-31T07:24:58.784Z,72.16
2023-03-31T07:27:28.953Z,72.22
2023-03-31T07:29:58.549Z,72.00
2023-03-31T07:32:28.877Z,72.28
2023-03-31T07:34:57.431Z,72.61
2023-03-31T07:37:25.786Z,72.90
2023-03-31T07:39:56.984Z,71.77
2023-03-31T07:42:25.245Z,71.46
2023-03-31T07:44:53.559Z,71.78
2023-03-31T07:47:24.161Z,72.04
2023-03-31T07:49:52.524Z,72.50
2023-03-31T07:52:23.565Z,72.47
2023-03-31T07:54:51.702Z,71.35
2023-03-31T07:57:20.435Z,70.65
2023-03-31T07:59:48.513Z,70.70
2023-03-31T08:02:18.799Z,70.79
2023-03-31T08:04:48.766Z,71.48
2023-03-31T08:07:17.859Z,71.84
2023-03-31T08:09:47.843Z,71.38
2023-03-31T08:12:16.120Z,71.33
2023-03-31T08:14:44.315Z,70.24
2023-03-31T08:17:12.617Z,71.20
2023-03-31T08:19:40.852Z,70.45
2023-03-31T08:22:10.217Z,69.88
2023-03-31T08:24:38.239Z,70.18
2023-03-31T08:27:11.949Z,69.83
2023-03-31T08:29:40.580Z,70.43
2023-03-31T08:32:08.749Z,70.23
2023-03-31T08:34:38.083Z,68.59
2023-03-31T08:37:06.198Z,69.79
2023-03-31T08:39:37.195Z,68.15
2023-03-31T08:42:15.407Z,68.28
2023-03-31T08:44:47.693Z,66.08
2023-03-31T08:47:20.116Z,66.25
2023-03-31T08:49:53.109Z,64.09
2023-03-31T08:52:28.017Z,64.54
2023-03-31T08:55:02.363Z,64.37
2023-03-31T08:57:40.940Z,64.73
2023-03-31T09:00:16.704Z,63.94
2023-03-31T09:02:53.077Z,64.10
2023-03-31T09:05:59.601Z,62.78
2023-03-31T09:08:40.562Z,61.92
2023-03-31T09:11:15.834Z,62.55
2023-03-31T09:14:14.522Z,62.36
2023-03-31T09:16:49.639Z,60.81
2023-03-31T09:19:26.061Z,60.20
2023-03-31T09:21:56.906Z,60.27
2023-03-31T09:24:32.646Z,59.47
2023-03-31T09:27:05.791Z,60.06
2023-03-31T09:29:43.381Z,58.23
2023-03-31T09:32:17.462Z,57.70
2023-03-31T09:34:48.070Z,57.13
2023-03-31T09:37:16.124Z,57.74
2023-03-31T09:39:44.502Z,57.25
2023-03-31T09:42:15.361Z,56.71
2023-03-31T09:44:47.386Z,55.42
2023-03-31T09:47:22.592Z,55.80
2023-03-31T09:49:53.735Z,55.63
2023-03-31T09:52:31.575Z,53.92
2023-03-31T09:55:02.559Z,54.20
2023-03-31T09:57:36.133Z,55.16
2023-03-31T10:00:16.069Z,54.97
2023-03-31T10:02:49.484Z,55.36
2023-03-31T10:05:29.522Z,54.84
2023-03-31T10:08:22.041Z,56.12
2023-03-31T10:10:52.847Z,54.68
2023-03-31T10:13:26.065Z,56.04
2023-03-31T10:15:56.003Z,57.13
2023-03-31T10:18:36.110Z,55.12
2023-03-31T10:21:07.993Z,52.68
2023-03-31T10:23:37.236Z,53.17
2023-03-31T10:26:06.578Z,53.03
2023-03-31T10:28:37.880Z,54.18
2023-03-31T10:31:06.291Z,55.41
2023-03-31T10:33:41.785Z,54.77
2023-03-31T10:36:26.994Z,54.43
2023-03-31T10:38:56.493Z,52.12
2023-03-31T10:41:29.046Z,53.30
2023-03-31T10:44:00.162Z,52.31
2023-03-31T10:46:43.964Z,53.09
2023-03-31T10:49:26.610Z,52.13
2023-03-31T10:51:57.529Z,52.87
2023-03-31T10:54:26.679Z,51.62
2023-03-31T10:56:58.941Z,52.99
2023-03-31T10:59:51.835Z,52.80
2023-03-31T11:02:53.513Z,53.87
2023-03-31T11:05:28.933Z,55.07
2023-03-31T11:08:13.946Z,56.18
2023-03-31T11:11:08.518Z,57.36
2023-03-31T11:13:45.286Z,59.90
2023-03-31T11:16:24.143Z,62.33
2023-03-31T11:19:16.608Z,63.63
2023-03-31T11:21:57.856Z,64.50
2023-03-31T11:24:51.774Z,66.35
2023-03-31T11:27:39.313Z,66.28
2023-03-31T11:30:18.286Z,65.31
2023-03-31T11:33:08.062Z,66.56
2023-03-31T11:35:54.347Z,66.53
2023-03-31T11:38:40.823Z,65.79
2023-03-31T11:41:12.225Z,67.23
2023-03-31T11:43:47.879Z,66.52
2023-03-31T11:46:22.156Z,65.75
2023-03-31T11:48:58.088Z,66.25
2023-03-31T11:51:30.540Z,65.90
2023-03-31T11:54:02.480Z,65.67
2023-03-31T11:56:37.355Z,65.39
2023-03-31T11:59:07.315Z,66.15
2023-03-31T12:01:43.906Z,66.95
2023-03-31T12:04:27.263Z,66.38
2023-03-31T12:07:03.930Z,65.53
2023-03-31T12:09:39.705Z,65.92
2023-03-31T12:12:14.061Z,64.02
2023-03-31T12:14:47.087Z,64.70
2023-03-31T12:17:18.895Z,63.43
2023-03-31T12:19:53.371Z,63.44
2023-03-31T12:22:27.069Z,62.70
2023-03-31T12:24:55.472Z,63.06
2023-03-31T12:27:28.591Z,62.30
2023-03-31T12:30:01.998Z,60.77
2023-03-31T12:32:34.608Z,60.68
2023-03-31T12:35:12.994Z,61.65
2023-03-31T12:38:20.424Z,59.51
2023-03-31T12:41:03.412Z,58.77
2023-03-31T12:44:11.460Z,56.91
2023-03-31T12:47:18.496Z,58.55
2023-03-31T12:50:03.709Z,56.61
2023-03-31T12:52:46.781Z,56.99
2023-03-31T12:55:35.589Z,55.97
2023-03-31T12:58:41.853Z,55.07
2023-03-31T13:01:21.520Z,54.70
2023-03-31T13:04:21.029Z,54.84
2023-03-31T13:06:55.741Z,55.36
2023-03-31T13:09:52.300Z,58.40
2023-03-31T13:12:25.455Z,59.11
2023-03-31T13:14:58.953Z,61.20
2023-03-31T13:17:34.459Z,62.68
2023-03-31T13:20:31.535Z,64.77
2023-03-31T13:23:06.754Z,66.62
2023-03-31T13:25:45.486Z,67.14
2023-03-31T13:28:40.036Z,68.25
2023-03-31T13:31:11.154Z,66.07
2023-03-31T13:33:48.390Z,65.06
2023-03-31T13:36:58.091Z,65.21
2023-03-31T13:39:53.594Z,65.97
2023-03-31T13:43:12.924Z,66.70
2023-03-31T13:46:01.415Z,66.38
2023-03-31T13:48:40.850Z,65.84
2023-03-31T13:51:30.026Z,65.15
2023-03-31T13:54:34.158Z,65.69
2023-03-31T13:58:05.438Z,64.66
2023-03-31T14:00:53.744Z,65.76
2023-03-31T14:03:39.303Z,66.16
2023-03-31T14:06:16.078Z,67.88
2023-03-31T14:08:52.362Z,65.88
2023-03-31T14:11:24.984Z,66.70
2023-03-31T14:14:07.488Z,66.74
2023-03-31T14:16:40.742Z,66.06
2023-03-31T14:19:47.988Z,63.85
2023-03-31T14:22:32.230Z,64.63
2023-03-31T14:25:15.615Z,63.93
2023-03-31T14:28:02.397Z,63.28
2023-03-31T14:30:46.771Z,64.29
2023-03-31T14:33:34.686Z,63.18
2023-03-31T14:36:15.825Z,62.78
2023-03-31T14:38:45.895Z,61.34
2023-03-31T14:41:21.295Z,61.74
2023-03-31T14:43:51.831Z,61.30
2023-03-31T14:46:24.643Z,61.64
2023-03-31T14:48:53.228Z,61.05
2023-03-31T14:51:28.926Z,60.36
2023-03-31T14:53:58.377Z,60.09
2023-03-31T14:56:34.755Z,59.36
2023-03-31T14:59:04.212Z,59.37
2023-03-31T15:01:37.756Z,59.88
2023-03-31T15:04:10.484Z,59.78
2023-03-31T15:06:39.981Z,60.10
2023-03-31T15:09:10.091Z,59.97
2023-03-31T15:11:38.166Z,60.71
2023-03-31T15:14:07.552Z,60.62
2023-03-31T15:16:43.445Z,61.18
2023-03-31T15:19:17.834Z,59.89
2023-03-31T15:21:47.745Z,59.70
2023-03-31T15:24:16.378Z,60.05
2023-03-31T15:26:50.467Z,58.62
2023-03-31T15:29:23.260Z,58.34
2023-03-31T15:31:53.035Z,57.32
2023-03-31T15:34:27.266Z,58.85
2023-03-31T15:36:57.286Z,57.30
2023-03-31T15:39:26.771Z,58.29
2023-03-31T15:41:56.504Z,58.24
2023-03-31T15:44:38.886Z,57.89
2023-03-31T15:47:17.551Z,58.25
2023-03-31T15:49:52.662Z,57.80
2023-03-31T15:52:30.219Z,57.60
2023-03-31T15:54:58.811Z,57.41
2023-03-31T15:57:35.431Z,56.62
2023-03-31T16:00:07.216Z,58.09
2023-03-31T16:02:47.173Z,57.57
2023-03-31T16:05:43.569Z,57.46
2023-03-31T16:08:20.291Z,58.99
2023-03-31T16:10:51.436Z,59.30
2023-03-31T16:13:23.369Z,60.17
2023-03-31T16:15:55.117Z,59.95
2023-03-31T16:18:34.163Z,59.41
2023-03-31T16:21:06.137Z,59.62
2023-03-31T16:23:38.687Z,60.42
2023-03-31T16:26:07.905Z,61.32
2023-03-31T16:28:38.698Z,61.86
2023-03-31T16:31:27.167Z,62.22
2023-03-31T16:33:58.195Z,60.62
2023-03-31T16:36:27.192Z,59.75
2023-03-31T16:38:55.793Z,61.16
2023-03-31T16:41:24.547Z,60.81
2023-03-31T16:43:54.216Z,61.19
2023-03-31T16:46:23.663Z,61.24
2023-03-31T16:48:52.784Z,61.05
2023-03-31T16:51:23.281Z,60.51
2023-03-31T16:53:51.524Z,60.21
2023-03-31T16:56:20.977Z,60.66
2023-03-31T16:58:49.114Z,60.91
2023-03-31T17:01:17.413Z,60.57
2023-03-31T17:03:45.685Z,59.58
2023-03-31T17:06:15.761Z,59.03
2023-03-31T17:08:45.712Z,58.73
2023-03-31T17:11:15.911Z,58.93
2023-03-31T17:13:44.658Z,58.84
2023-03-31T17:16:22.040Z,58.98
2023-03-31T17:18:55.461Z,58.77
2023-03-31T17:21:23.722Z,58.84
2023-03-31T17:23:53.210Z,58.87
2023-03-31T17:26:21.953Z,59.09
2023-03-31T17:28:50.549Z,59.17
2023-03-31T17:31:21.088Z,60.02
2023-03-31T17:33:49.731Z,59.74
2023-03-31T17:36:18.353Z,59.42
2023-03-31T17:38:46.426Z,60.67
2023-03-31T17:41:17.657Z,60.17
2023-03-31T17:43:47.200Z,59.99
2023-03-31T17:46:15.480Z,61.11
2023-03-31T17:48:45.558Z,61.72
2023-03-31T17:51:17.135Z,62.87
2023-03-31T17:53:46.936Z,64.52
2023-03-31T17:56:18.611Z,64.80
2023-03-31T17:58:47.403Z,64.65
2023-03-31T18:01:16.333Z,65.63
2023-03-31T18:03:46.146Z,66.24
2023-03-31T18:06:15.704Z,66.82
2023-03-31T18:08:44.382Z,66.66
2023-03-31T18:11:13.347Z,67.07
2023-03-31T18:13:42.706Z,66.90
2023-03-31T18:16:12.893Z,66.60
2023-03-31T18:18:42.371Z,66.36
2023-03-31T18:21:13.133Z,66.11
2023-03-31T18:23:42.132Z,66.47
2023-03-31T18:26:12.158Z,66.47
2023-03-31T18:28:41.724Z,65.96
2023-03-31T18:31:10.858Z,66.25
2023-03-31T18:33:39.049Z,65.68
2023-03-31T18:36:08.488Z,65.89
2023-03-31T18:38:36.923Z,66.74
2023-03-31T18:41:06.084Z,66.71
2023-03-31T18:43:34.581Z,66.23
2023-03-31T18:46:04.356Z,66.48
2023-03-31T18:48:32.872Z,66.74
2023-03-31T18:51:00.901Z,66.97
2023-03-31T18:53:30.040Z,67.00
2023-03-31T18:55:59.926Z,67.49
2023-03-31T18:58:33.466Z,67.19
2023-03-31T19:01:03.197Z,67.16
2023-03-31T19:03:32.520Z,67.77
2023-03-31T19:06:06.680Z,67.59
2023-03-31T19:08:34.689Z,67.46
2023-03-31T19:11:10.051Z,67.34
2023-03-31T19:13:39.946Z,67.60
2023-03-31T19:16:10.043Z,67.60
2023-03-31T19:18:38.538Z,68.57
2023-03-31T19:21:07.050Z,67.90
2023-03-31T19:23:38.874Z,68.56
2023-03-31T19:26:07.114Z,67.69
2023-03-31T19:28:35.177Z,67.77
2023-03-31T19:31:06.131Z,67.31
2023-03-31T19:33:35.537Z,67.23
2023-03-31T19:36:03.835Z,67.15
2023-03-31T19:38:36.568Z,67.78
2023-03-31T19:41:05.950Z,67.47
2023-03-31T19:43:34.777Z,67.54
2023-03-31T19:46:03.400Z,68.14
2023-03-31T19:48:33.863Z,67.19
2023-03-31T19:51:05.755Z,67.42
2023-03-31T19:53:34.336Z,67.26
2023-03-31T19:56:05.328Z,66.75
2023-03-31T19:58:35.855Z,66.46
2023-03-31T20:01:06.457Z,67.39
2023-03-31T20:03:35.886Z,67.02
2023-03-31T20:06:07.813Z,66.05
2023-03-31T20:08:36.520Z,66.14
2023-03-31T20:11:08.142Z,66.19
2023-03-31T20:13:36.730Z,66.34
2023-03-31T20:16:07.944Z,66.32
2023-03-31T20:18:38.927Z,66.17
2023-03-31T20:21:11.364Z,66.76
2023-03-31T20:23:41.688Z,67.39
2023-03-31T20:26:12.706Z,66.95
2023-03-31T20:28:41.755Z,66.85
2023-03-31T20:31:11.304Z,67.36
2023-03-31T20:33:39.533Z,67.03
2023-03-31T20:36:11.305Z,66.87
2023-03-31T20:38:40.637Z,67.02
2023-03-31T20:41:10.599Z,67.29
2023-03-31T20:43:39.922Z,66.90
2023-03-31T20:46:10.593Z,67.20
2023-03-31T20:48:41.393Z,67.63
2023-03-31T20:51:12.904Z,66.68
2023-03-31T20:53:43.763Z,66.66
2023-03-31T20:56:12.767Z,67.21
2023-03-31T20:58:43.925Z,67.20
2023-03-31T21:01:13.527Z,66.45
2023-03-31T21:03:42.130Z,66.75
2023-03-31T21:06:14.392Z,65.98
2023-03-31T21:08:45.394Z,66.70
2023-03-31T21:11:14.496Z,66.30
2023-03-31T21:13:44.711Z,66.50
2023-03-31T21:16:13.478Z,66.25
2023-03-31T21:18:41.622Z,66.54
2023-03-31T21:21:14.379Z,66.18
2023-03-31T21:23:42.945Z,65.89
2023-03-31T21:26:14.892Z,66.28
2023-03-31T21:28:43.582Z,66.09
2023-03-31T21:31:14.124Z,65.60
2023-03-31T21:33:44.558Z,65.80
2023-03-31T21:36:17.717Z,66.07
2023-03-31T21:38:46.064Z,66.38
2023-03-31T21:41:17.486Z,66.08
2023-03-31T21:43:46.203Z,66.65
2023-03-31T21:46:17.457Z,67.82
2023-03-31T21:48:46.144Z,68.44
2023-03-31T21:51:15.870Z,67.72
2023-03-31T21:53:43.994Z,68.47
2023-03-31T21:56:12.207Z,68.64
2023-03-31T21:58:40.370Z,68.60
2023-03-31T22:01:08.796Z,68.43
2023-03-31T22:03:38.464Z,67.98
2023-03-31T22:06:08.290Z,68.16
2023-03-31T22:08:39.728Z,67.95
2023-03-31T22:11:10.111Z,67.69
2023-03-31T22:13:38.909Z,67.44
2023-03-31T22:16:16.219Z,67.10
2023-03-31T22:18:44.525Z,67.46
2023-03-31T22:21:17.999Z,67.14
2023-03-31T22:23:47.604Z,66.94
2023-03-31T22:26:15.671Z,66.89
2023-03-31T22:28:43.819Z,66.66
2023-03-31T22:31:11.810Z,67.09
2023-03-31T22:33:39.957Z,66.44
2023-03-31T22:36:09.071Z,66.29
2023-03-31T22:38:37.118Z,66.66
2023-03-31T22:41:07.318Z,66.61
2023-03-31T22:43:35.524Z,66.74
2023-03-31T22:46:05.317Z,66.26
2023-03-31T22:48:33.471Z,66.79
2023-03-31T22:51:05.776Z,66.51
2023-03-31T22:53:35.150Z,66.93
2023-03-31T22:56:11.426Z,66.40
2023-03-31T22:58:39.754Z,66.19
2023-03-31T23:01:09.788Z,66.16
2023-03-31T23:03:38.265Z,66.21
2023-03-31T23:06:07.236Z,66.84
2023-03-31T23:08:36.918Z,66.88
2023-03-31T23:11:08.684Z,66.25
2023-03-31T23:13:36.939Z,66.70
2023-03-31T23:16:07.425Z,67.14
2023-03-31T23:18:36.327Z,66.18
2023-03-31T23:21:06.565Z,65.99
2023-03-31T23:23:34.589Z,65.86
2023-03-31T23:26:02.802Z,65.92
2023-03-31T23:28:32.476Z,65.58
2023-03-31T23:31:00.717Z,65.78
2023-03-31T23:33:30.089Z,66.02
2023-03-31T23:36:01.338Z,65.75
2023-03-31T23:38:30.106Z,65.85
2023-03-31T23:40:58.629Z,65.85
2023-03-31T23:43:27.745Z,65.90
2023-03-31T23:45:57.446Z,65.20
2023-03-31T23:48:25.865Z,65.58
2023-03-31T23:50:53.885Z,65.24
2023-03-31T23:53:21.974Z,65.03
2023-03-31T23:55:57.851Z,65.04
2023-03-31T23:58:26.782Z,65.18
